createdAt,value
2019-05-13T00:02:13.339Z,102097.53
2019-05-13T00:04:46.945Z,102092.49
2019-05-13T00:07:18.645Z,102089.97
2019-05-13T00:09:54.363Z,102087.70
2019-05-13T00:12:26.391Z,102095.60
2019-05-13T00:14:57.689Z,102094.81
2019-05-13T00:17:29.811Z,102098.50
2019-05-13T00:20:00.919Z,102098.02
2019-05-13T00:22:34.023Z,102098.78
2019-05-13T00:25:05.212Z,102105.42
2019-05-13T00:27:48.005Z,102109.41
2019-05-13T00:30:18.739Z,102101.66
2019-05-13T00:32:56.350Z,102108.66
2019-05-13T00:35:30.429Z,102106.56
2019-05-13T00:38:00.881Z,102101.08
2019-05-13T00:40:33.692Z,102091.58
2019-05-13T00:43:06.104Z,102085.58
2019-05-13T00:45:47.642Z,102079.56
2019-05-13T00:48:23.323Z,102075.60
2019-05-13T00:50:56.559Z,102071.21
2019-05-13T00:53:27.872Z,102067.21
2019-05-13T00:56:01.136Z,102062.46
2019-05-13T00:58:33.645Z,102068.39
2019-05-13T01:01:05.496Z,102065.75
2019-05-13T01:03:48.752Z,102067.03
2019-05-13T01:06:23.625Z,102067.98
2019-05-13T01:08:55.625Z,102059.78
2019-05-13T01:11:28.150Z,102055.84
2019-05-13T01:14:00.116Z,102056.11
2019-05-13T01:16:35.827Z,102063.00
2019-05-13T01:19:11.633Z,102062.35
2019-05-13T01:21:45.060Z,102066.83
2019-05-13T01:24:16.653Z,102065.13
2019-05-13T01:26:51.571Z,102066.24
2019-05-13T01:29:24.411Z,102070.63
2019-05-13T01:32:16.174Z,102071.09
2019-05-13T01:34:49.982Z,102071.91
2019-05-13T01:37:24.764Z,102065.13
2019-05-13T01:40:00.087Z,102066.50
2019-05-13T01:42:34.074Z,102071.77
2019-05-13T01:45:06.282Z,102072.45
2019-05-13T01:47:39.642Z,102069.52
2019-05-13T01:50:17.365Z,102079.47
2019-05-13T01:52:53.312Z,102076.45
2019-05-13T01:55:24.510Z,102082.34
2019-05-13T01:57:56.186Z,102081.08
2019-05-13T02:00:28.743Z,102080.34
2019-05-13T02:03:03.640Z,102078.65
2019-05-13T02:05:35.924Z,102071.86
2019-05-13T02:08:14.340Z,102081.69
2019-05-13T02:11:04.614Z,102078.70
2019-05-13T02:13:39.630Z,102078.91
2019-05-13T02:16:14.541Z,102084.27
2019-05-13T02:18:49.524Z,102084.61
2019-05-13T02:21:24.578Z,102089.67
2019-05-13T02:23:56.970Z,102093.95
2019-05-13T02:26:29.056Z,102093.33
2019-05-13T02:29:03.738Z,102097.95
2019-05-13T02:31:46.081Z,102102.97
2019-05-13T02:34:13.726Z,102097.23
2019-05-13T02:36:47.397Z,102087.34
2019-05-13T02:39:22.305Z,102086.05
2019-05-13T02:41:57.322Z,102086.91
2019-05-13T02:44:33.243Z,102094.77
2019-05-13T02:47:06.766Z,102099.51
2019-05-13T02:49:42.174Z,102098.84
2019-05-13T02:52:14.780Z,102094.00
2019-05-13T02:54:52.785Z,102102.09
2019-05-13T02:57:32.749Z,102096.06
2019-05-13T03:00:05.739Z,102093.05
2019-05-13T03:02:36.292Z,102100.44
2019-05-13T03:05:06.563Z,102099.75
2019-05-13T03:07:38.114Z,102096.90
2019-05-13T03:10:13.439Z,102095.08
2019-05-13T03:12:44.044Z,102103.14
2019-05-13T03:15:15.452Z,102090.53
2019-05-13T03:18:03.543Z,102094.70
2019-05-13T03:20:38.221Z,102101.42
2019-05-13T03:23:12.580Z,102096.05
2019-05-13T03:25:42.914Z,102080.41
2019-05-13T03:28:13.610Z,102104.08
2019-05-13T03:30:45.881Z,102104.93
2019-05-13T03:33:19.104Z,102101.22
2019-05-13T03:35:46.076Z,102104.75
2019-05-13T03:38:15.538Z,102114.14
2019-05-13T03:40:46.389Z,102113.41
2019-05-13T03:43:16.813Z,102111.70
2019-05-13T03:45:48.813Z,102108.11
2019-05-13T03:48:23.571Z,102117.73
2019-05-13T03:50:53.493Z,102111.81
2019-05-13T03:53:23.592Z,102109.78
2019-05-13T03:55:54.070Z,102109.22
2019-05-13T03:58:24.163Z,102114.20
2019-05-13T04:00:53.633Z,102113.37
2019-05-13T04:03:23.104Z,102119.77
2019-05-13T04:05:53.148Z,102125.98
2019-05-13T04:08:23.079Z,102122.63
2019-05-13T04:10:52.761Z,102124.08
2019-05-13T04:13:23.375Z,102133.47
2019-05-13T04:15:53.280Z,102130.11
2019-05-13T04:18:23.704Z,102133.58
2019-05-13T04:20:53.428Z,102140.77
2019-05-13T04:23:23.559Z,102144.12
2019-05-13T04:25:53.835Z,102141.61
2019-05-13T04:28:23.439Z,102144.86
2019-05-13T04:30:53.095Z,102153.25
2019-05-13T04:33:23.209Z,102131.15
2019-05-13T04:35:53.241Z,102148.70
2019-05-13T04:38:23.107Z,102128.38
2019-05-13T04:40:53.222Z,102155.39
2019-05-13T04:43:23.530Z,102161.69
2019-05-13T04:45:53.303Z,102161.73
2019-05-13T04:48:23.095Z,102168.27
2019-05-13T04:50:53.535Z,102171.49
2019-05-13T04:53:23.026Z,102171.31
2019-05-13T04:55:52.822Z,102175.87
2019-05-13T04:58:23.710Z,102179.23
2019-05-13T05:01:15.491Z,102175.05
2019-05-13T05:03:53.199Z,102173.36
2019-05-13T05:06:52.463Z,102159.58
2019-05-13T05:10:15.834Z,102168.34
2019-05-13T05:13:02.346Z,102163.94
2019-05-13T05:15:57.770Z,102167.23
2019-05-13T05:19:02.074Z,102175.31
2019-05-13T05:21:37.669Z,102168.28
2019-05-13T05:24:44.892Z,102167.62
2019-05-13T05:27:42.067Z,102126.80
2019-05-13T05:30:42.829Z,102176.05
2019-05-13T05:33:47.677Z,102176.86
2019-05-13T05:36:43.671Z,102175.36
2019-05-13T05:39:38.165Z,102176.71
2019-05-13T05:42:11.228Z,102185.27
2019-05-13T05:44:42.261Z,102182.37
2019-05-13T05:47:12.067Z,102191.28
2019-05-13T05:49:42.604Z,102188.27
2019-05-13T05:52:12.455Z,102184.52
2019-05-13T05:54:42.348Z,102182.75
2019-05-13T05:57:12.344Z,102189.23
2019-05-13T05:59:42.909Z,102186.38
2019-05-13T06:02:12.474Z,102187.13
2019-05-13T06:04:43.222Z,102181.28
2019-05-13T06:07:14.384Z,102188.78
2019-05-13T06:09:47.098Z,102184.95
2019-05-13T06:12:26.927Z,102183.77
2019-05-13T06:14:56.432Z,102183.67
2019-05-13T06:17:25.835Z,102188.47
2019-05-13T06:19:55.253Z,102191.25
2019-05-13T06:22:24.627Z,102191.28
2019-05-13T06:24:53.905Z,102190.94
2019-05-13T06:27:23.229Z,102186.37
2019-05-13T06:29:53.049Z,102197.67
2019-05-13T06:32:26.293Z,102199.98
2019-05-13T06:34:53.869Z,102196.92
2019-05-13T06:37:23.195Z,102195.51
2019-05-13T06:39:52.502Z,102196.45
2019-05-13T06:42:24.153Z,102204.56
2019-05-13T06:44:53.540Z,102208.60
2019-05-13T06:47:23.838Z,102214.30
2019-05-13T06:49:55.958Z,102216.98
2019-05-13T06:52:25.371Z,102211.39
2019-05-13T06:54:54.752Z,102212.36
2019-05-13T06:57:26.392Z,102230.53
2019-05-13T06:59:55.964Z,102233.42
2019-05-13T07:02:25.674Z,102238.92
2019-05-13T07:04:55.389Z,102242.65
2019-05-13T07:07:25.307Z,102246.55
2019-05-13T07:09:55.077Z,102252.48
2019-05-13T07:12:24.926Z,102262.16
2019-05-13T07:15:03.403Z,102260.39
2019-05-13T07:20:33.378Z,102277.92
2019-05-13T07:23:11.901Z,102279.30
2019-05-13T07:25:42.093Z,102290.99
2019-05-13T07:28:12.950Z,102293.73
2019-05-13T07:30:43.886Z,102284.09
2019-05-13T07:36:04.209Z,102297.97
2019-05-13T07:38:33.787Z,102317.44
2019-05-13T07:41:05.656Z,102335.94
2019-05-13T07:43:34.871Z,102340.93
2019-05-13T07:46:04.248Z,102338.73
2019-05-13T07:48:33.557Z,102342.02
2019-05-13T07:51:04.685Z,102333.47
2019-05-13T07:53:34.299Z,102335.02
2019-05-13T07:56:03.663Z,102341.19
2019-05-13T07:58:41.648Z,102337.38
2019-05-13T08:01:12.192Z,102331.95
2019-05-13T08:03:42.302Z,102341.17
2019-05-13T08:06:12.137Z,102339.39
2019-05-13T08:08:41.882Z,102339.89
2019-05-13T08:11:12.801Z,102346.20
2019-05-13T08:13:44.626Z,102345.97
2019-05-13T08:16:13.467Z,102348.65
2019-05-13T08:18:45.274Z,102352.94
2019-05-13T08:21:14.686Z,102348.21
2019-05-13T08:23:44.044Z,102343.68
2019-05-13T08:26:13.676Z,102348.23
2019-05-13T08:28:57.153Z,102348.97
2019-05-13T08:31:14.415Z,102345.62
2019-05-13T08:33:43.739Z,102351.11
2019-05-13T08:36:13.085Z,102356.70
2019-05-13T08:38:43.175Z,102368.00
2019-05-13T08:41:19.063Z,102353.61
2019-05-13T08:43:44.305Z,102366.40
2019-05-13T08:46:13.962Z,102362.41
2019-05-13T08:48:43.489Z,102360.59
2019-05-13T08:51:12.762Z,102360.02
2019-05-13T08:53:42.533Z,102356.31
2019-05-13T08:56:12.348Z,102356.84
2019-05-13T08:58:41.533Z,102352.11
2019-05-13T09:01:12.412Z,102356.72
2019-05-13T09:03:41.934Z,102350.66
2019-05-13T09:06:11.720Z,102347.34
2019-05-13T09:08:42.484Z,102345.14
2019-05-13T09:11:12.122Z,102349.16
2019-05-13T09:13:42.390Z,102349.39
2019-05-13T09:16:13.371Z,102345.86
2019-05-13T09:18:42.846Z,102347.67
2019-05-13T09:21:12.099Z,102348.28
2019-05-13T09:23:41.489Z,102350.72
2019-05-13T09:26:11.896Z,102345.27
2019-05-13T09:28:41.784Z,102352.99
2019-05-13T09:31:12.597Z,102354.80
2019-05-13T09:33:42.129Z,102352.08
2019-05-13T09:36:12.548Z,102343.78
2019-05-13T09:38:42.174Z,102344.59
2019-05-13T09:41:12.479Z,102349.81
2019-05-13T09:43:42.064Z,102346.41
2019-05-13T09:46:11.945Z,102344.53
2019-05-13T09:48:42.497Z,102344.66
2019-05-13T09:51:12.535Z,102339.72
2019-05-13T09:53:41.835Z,102342.32
2019-05-13T09:56:11.882Z,102335.37
2019-05-13T09:58:42.092Z,102337.94
2019-05-13T10:01:12.613Z,102334.77
2019-05-13T10:03:54.024Z,102339.83
2019-05-13T10:06:13.327Z,102333.00
2019-05-13T10:08:42.590Z,102336.69
2019-05-13T10:11:12.463Z,102340.02
2019-05-13T10:13:41.852Z,102338.48
2019-05-13T10:16:12.411Z,102337.48
2019-05-13T10:18:42.425Z,102328.12
2019-05-13T10:21:12.112Z,102329.89
2019-05-13T10:23:42.142Z,102324.09
2019-05-13T10:26:14.200Z,102324.46
2019-05-13T10:28:43.779Z,102319.52
2019-05-13T10:31:13.038Z,102321.63
2019-05-13T10:33:42.373Z,102323.19
2019-05-13T10:36:12.217Z,102316.34
2019-05-13T10:38:42.161Z,102311.01
2019-05-13T10:41:12.116Z,102310.34
2019-05-13T10:43:44.554Z,102306.62
2019-05-13T10:46:14.011Z,102311.84
2019-05-13T10:48:43.230Z,102305.69
2019-05-13T10:51:13.041Z,102291.59
2019-05-13T10:53:42.890Z,102288.95
2019-05-13T10:56:12.197Z,102292.50
2019-05-13T10:58:42.716Z,102289.17
2019-05-13T11:01:12.119Z,102284.94
2019-05-13T11:03:42.735Z,102281.75
2019-05-13T11:06:12.207Z,102289.57
2019-05-13T11:08:42.260Z,102281.89
2019-05-13T11:11:13.066Z,102279.25
2019-05-13T11:13:58.175Z,102269.25
2019-05-13T11:16:13.627Z,102276.16
2019-05-13T11:18:42.853Z,102269.20
2019-05-13T11:21:12.975Z,102268.73
2019-05-13T11:23:42.496Z,102271.08
2019-05-13T11:26:12.944Z,102270.83
2019-05-13T11:28:42.989Z,102267.61
2019-05-13T11:31:12.475Z,102270.24
2019-05-13T11:33:42.512Z,102259.80
2019-05-13T11:36:12.931Z,102265.61
2019-05-13T11:38:43.450Z,102261.86
2019-05-13T11:41:12.745Z,102264.89
2019-05-13T11:43:42.260Z,102255.76
2019-05-13T11:46:11.493Z,102255.59
2019-05-13T11:48:42.545Z,102250.02
2019-05-13T11:51:13.009Z,102253.77
2019-05-13T11:53:42.726Z,102251.54
2019-05-13T11:56:12.202Z,102248.88
2019-05-13T11:58:43.184Z,102248.30
2019-05-13T12:01:13.587Z,102232.95
2019-05-13T12:03:43.520Z,102234.69
2019-05-13T12:06:13.157Z,102232.04
2019-05-13T12:08:47.233Z,102232.55
2019-05-13T12:11:14.018Z,102238.59
2019-05-13T12:13:43.535Z,102228.48
2019-05-13T12:16:13.204Z,102223.91
2019-05-13T12:18:43.831Z,102221.12
2019-05-13T12:21:13.318Z,102221.46
2019-05-13T12:23:42.925Z,102221.61
2019-05-13T12:26:13.065Z,102212.03
2019-05-13T12:28:42.337Z,102217.27
2019-05-13T12:31:12.231Z,102208.73
2019-05-13T12:33:43.982Z,102202.67
2019-05-13T12:36:17.862Z,102210.22
2019-05-13T12:38:44.408Z,102206.41
2019-05-13T12:41:14.150Z,102199.77
2019-05-13T12:43:46.635Z,102204.16
2019-05-13T12:46:15.856Z,102207.35
2019-05-13T12:48:45.455Z,102193.95
2019-05-13T12:51:14.663Z,102207.55
2019-05-13T12:53:45.217Z,102197.14
2019-05-13T12:56:14.787Z,102204.08
2019-05-13T12:58:44.035Z,102196.22
2019-05-13T13:01:13.247Z,102199.02
2019-05-13T13:03:42.545Z,102200.88
2019-05-13T13:06:27.135Z,102193.67
2019-05-13T13:11:13.675Z,102188.69
2019-05-13T13:13:58.034Z,102182.69
2019-05-13T13:16:14.025Z,102181.66
2019-05-13T13:18:43.747Z,102189.30
2019-05-13T13:21:14.445Z,102185.09
2019-05-13T13:23:43.994Z,102174.72
2019-05-13T13:26:16.055Z,102171.70
2019-05-13T13:28:44.535Z,102164.26
2019-05-13T13:31:13.741Z,102170.50
2019-05-13T13:33:44.356Z,102168.47
2019-05-13T13:36:15.427Z,102164.50
2019-05-13T13:38:44.912Z,102161.02
2019-05-13T13:41:22.262Z,102153.69
2019-05-13T13:43:45.164Z,102154.73
2019-05-13T13:46:32.313Z,102155.07
2019-05-13T13:48:45.374Z,102149.67
2019-05-13T13:51:14.774Z,102147.08
2019-05-13T13:53:44.840Z,102160.80
2019-05-13T13:56:14.970Z,102151.19
2019-05-13T13:58:44.430Z,102149.11
2019-05-13T14:01:19.890Z,102147.81
2019-05-13T14:03:46.288Z,102142.77
2019-05-13T14:07:09.298Z,102188.51
2019-05-13T14:07:09.415Z,102141.00
2019-05-13T14:08:46.568Z,102127.02
2019-05-13T14:11:15.834Z,102131.73
2019-05-13T14:13:45.050Z,102118.22
2019-05-13T14:16:28.567Z,102140.23
2019-05-13T14:18:45.451Z,102129.42
2019-05-13T14:21:14.705Z,102132.63
2019-05-13T14:23:44.126Z,102139.77
2019-05-13T14:26:13.385Z,102131.98
2019-05-13T14:28:42.936Z,102134.25
2019-05-13T14:31:13.337Z,102118.04
2019-05-13T14:33:43.112Z,102112.52
2019-05-13T14:36:12.523Z,102116.73
2019-05-13T14:38:42.126Z,102118.17
2019-05-13T14:41:12.299Z,102110.80
2019-05-13T14:46:47.170Z,102103.66
2019-05-13T14:49:12.267Z,102108.98
2019-05-13T14:51:41.620Z,102098.71
2019-05-13T14:54:11.040Z,102108.85
2019-05-13T14:56:42.013Z,102100.69
2019-05-13T14:59:12.004Z,102101.68
2019-05-13T15:01:41.563Z,102098.45
2019-05-13T15:04:12.221Z,102102.09
2019-05-13T15:06:41.898Z,102090.76
2019-05-13T15:09:12.556Z,102097.08
2019-05-13T15:11:42.432Z,102108.30
2019-05-13T15:14:11.858Z,102094.20
2019-05-13T15:16:42.453Z,102097.34
2019-05-13T15:19:12.218Z,102090.20
2019-05-13T15:21:41.801Z,102089.06
2019-05-13T15:24:12.326Z,102081.94
2019-05-13T15:26:42.403Z,102078.79
2019-05-13T15:29:11.820Z,102083.00
2019-05-13T15:31:42.144Z,102078.72
2019-05-13T15:34:11.912Z,102075.80
2019-05-13T15:36:41.897Z,102070.76
2019-05-13T15:39:11.957Z,102084.17
2019-05-13T15:41:42.045Z,102080.50
2019-05-13T15:44:11.531Z,102072.89
2019-05-13T15:46:41.730Z,102071.33
2019-05-13T15:49:12.378Z,102066.40
2019-05-13T15:51:42.373Z,102064.19
2019-05-13T15:54:15.267Z,102068.63
2019-05-13T15:56:42.747Z,102063.06
2019-05-13T15:59:12.735Z,102061.87
2019-05-13T16:01:42.072Z,102064.20
2019-05-13T16:04:13.517Z,102061.75
2019-05-13T16:06:42.278Z,102065.22
2019-05-13T16:09:11.904Z,102062.36
2019-05-13T16:11:41.533Z,102056.70
2019-05-13T16:14:11.803Z,102051.14
2019-05-13T16:16:41.871Z,102046.32
2019-05-13T16:19:12.199Z,102033.66
2019-05-13T16:21:41.826Z,102048.30
2019-05-13T16:24:11.981Z,102050.31
2019-05-13T16:26:42.687Z,102049.17
2019-05-13T16:29:12.838Z,102042.14
2019-05-13T16:31:42.503Z,102044.69
2019-05-13T16:34:13.575Z,102041.48
2019-05-13T16:36:43.285Z,102055.23
2019-05-13T16:39:12.715Z,102048.30
2019-05-13T16:41:42.745Z,102046.63
2019-05-13T16:44:12.288Z,102050.09
2019-05-13T16:46:42.578Z,102047.08
2019-05-13T16:49:12.329Z,102036.70
2019-05-13T16:51:42.554Z,102038.26
2019-05-13T16:54:12.170Z,102038.76
2019-05-13T16:56:42.102Z,102039.58
2019-05-13T16:59:11.637Z,102036.93
2019-05-13T17:01:42.015Z,102038.48
2019-05-13T17:04:12.652Z,102042.85
2019-05-13T17:06:42.001Z,102035.39
2019-05-13T17:09:11.650Z,102027.52
2019-05-13T17:11:41.500Z,102027.28
2019-05-13T17:14:11.203Z,102028.34
2019-05-13T17:16:41.456Z,102028.58
2019-05-13T17:19:12.101Z,102026.92
2019-05-13T17:21:41.613Z,102026.92
2019-05-13T17:24:12.375Z,102030.52
2019-05-13T17:26:41.985Z,102021.20
2019-05-13T17:29:14.499Z,102018.58
2019-05-13T17:31:44.041Z,102025.24
2019-05-13T17:34:13.379Z,102021.84
2019-05-13T17:36:42.718Z,102016.98
2019-05-13T17:39:12.758Z,102013.44
2019-05-13T17:41:42.135Z,102015.47
2019-05-13T17:44:13.635Z,102023.34
2019-05-13T17:46:42.862Z,102015.12
2019-05-13T17:49:12.174Z,102014.54
2019-05-13T17:51:42.481Z,102011.89
2019-05-13T17:54:19.102Z,102015.27
2019-05-13T17:56:51.606Z,102015.97
2019-05-13T17:59:21.778Z,102016.25
2019-05-13T18:01:51.768Z,102011.50
2019-05-13T18:04:22.606Z,102011.95
2019-05-13T18:06:52.400Z,102006.22
2019-05-13T18:09:22.350Z,102012.66
2019-05-13T18:11:52.867Z,102007.45
2019-05-13T18:14:22.150Z,102004.14
2019-05-13T18:16:51.949Z,102006.34
2019-05-13T18:19:22.140Z,102003.94
2019-05-13T18:21:52.767Z,102005.01
2019-05-13T18:24:23.028Z,101997.55
2019-05-13T18:26:52.462Z,102000.85
2019-05-13T18:29:22.712Z,101997.52
2019-05-13T18:31:52.611Z,101997.84
2019-05-13T18:34:24.939Z,102002.67
2019-05-13T18:36:57.736Z,101993.03
2019-05-13T18:39:26.906Z,101991.20
2019-05-13T18:41:56.551Z,102002.52
2019-05-13T18:44:26.530Z,102002.66
2019-05-13T18:46:55.862Z,102001.04
2019-05-13T18:49:25.691Z,102002.59
2019-05-13T18:51:55.056Z,102002.59
2019-05-13T18:54:31.628Z,101989.93
2019-05-13T18:57:05.134Z,101989.74
2019-05-13T18:59:34.922Z,101989.16
2019-05-13T19:02:04.930Z,101994.67
2019-05-13T19:04:34.654Z,101990.66
2019-05-13T19:07:44.725Z,101992.52
2019-05-13T19:10:17.841Z,102002.81
2019-05-13T19:12:51.228Z,101998.68
2019-05-13T19:15:21.346Z,102005.64
2019-05-13T19:17:52.032Z,102012.64
2019-05-13T19:20:22.147Z,102011.96
2019-05-13T19:22:51.921Z,102014.78
2019-05-13T19:25:21.190Z,102012.89
2019-05-13T19:27:51.704Z,102017.42
2019-05-13T19:30:21.438Z,102021.83
2019-05-13T19:32:52.058Z,102014.02
2019-05-13T19:35:21.960Z,102019.01
2019-05-13T19:37:51.778Z,102013.55
2019-05-13T19:40:22.032Z,102012.69
2019-05-13T19:42:51.487Z,102015.72
2019-05-13T19:45:22.162Z,102016.84
2019-05-13T19:47:51.886Z,102014.44
2019-05-13T19:50:24.510Z,102012.41
2019-05-13T19:52:54.461Z,102015.86
2019-05-13T19:55:23.948Z,102024.68
2019-05-13T19:57:53.427Z,102016.19
2019-05-13T20:00:23.169Z,102019.98
2019-05-13T20:02:56.111Z,102019.83
2019-05-13T20:05:25.363Z,102023.13
2019-05-13T20:07:54.662Z,102022.48
2019-05-13T20:10:24.404Z,102018.78
2019-05-13T20:12:53.778Z,102021.55
2019-05-13T20:15:23.041Z,102015.09
2019-05-13T20:17:52.731Z,102008.81
2019-05-13T20:20:21.965Z,102013.42
2019-05-13T20:22:51.889Z,102009.62
2019-05-13T20:25:23.451Z,102014.13
2019-05-13T20:27:53.010Z,102010.19
2019-05-13T20:30:22.235Z,102006.58
2019-05-13T20:32:51.929Z,102005.08
2019-05-13T20:35:21.903Z,102007.89
2019-05-13T20:37:51.643Z,102011.27
2019-05-13T20:40:22.091Z,102010.05
2019-05-13T20:42:52.052Z,102009.06
2019-05-13T20:45:22.393Z,102011.96
2019-05-13T20:47:51.879Z,102007.98
2019-05-13T20:50:21.690Z,102005.35
2019-05-13T20:52:51.785Z,102006.56
2019-05-13T20:55:22.149Z,102008.28
2019-05-13T20:57:53.045Z,102001.23
2019-05-13T21:00:22.810Z,102010.22
2019-05-13T21:02:52.057Z,102003.80
2019-05-13T21:05:21.901Z,102009.44
2019-05-13T21:07:51.633Z,102013.94
2019-05-13T21:10:21.304Z,102012.87
2019-05-13T21:12:51.331Z,102003.19
2019-05-13T21:15:20.860Z,102012.55
2019-05-13T21:17:51.574Z,102007.14
2019-05-13T21:20:25.580Z,102011.95
2019-05-13T21:22:52.065Z,102004.22
2019-05-13T21:25:21.303Z,102010.42
2019-05-13T21:27:51.439Z,102012.74
2019-05-13T21:30:22.256Z,102007.41
2019-05-13T21:32:51.824Z,102003.24
2019-05-13T21:35:21.479Z,102003.34
2019-05-13T21:37:54.009Z,102006.20
2019-05-13T21:40:23.900Z,102013.94
2019-05-13T21:42:53.120Z,102011.85
2019-05-13T21:45:22.378Z,102010.06
2019-05-13T21:47:51.606Z,102008.50
2019-05-13T21:50:33.108Z,102011.63
2019-05-13T21:52:52.203Z,102006.58
2019-05-13T21:55:21.819Z,102008.04
2019-05-13T21:57:52.899Z,102014.00
2019-05-13T22:00:26.214Z,102009.53
2019-05-13T22:02:55.744Z,102012.73
2019-05-13T22:05:24.990Z,102010.22
2019-05-13T22:07:54.209Z,102010.86
2019-05-13T22:10:23.447Z,102007.11
2019-05-13T22:12:52.710Z,102010.67
2019-05-13T22:15:21.973Z,102010.26
2019-05-13T22:17:51.374Z,102012.90
2019-05-13T22:20:21.344Z,102016.55
2019-05-13T22:22:52.036Z,102010.92
2019-05-13T22:25:21.440Z,102007.71
2019-05-13T22:27:51.885Z,102002.36
2019-05-13T22:30:21.399Z,102002.91
2019-05-13T22:32:52.332Z,102001.86
2019-05-13T22:35:21.894Z,101999.66
2019-05-13T22:37:51.333Z,101996.65
2019-05-13T22:40:21.847Z,101992.34
2019-05-13T22:42:56.859Z,101989.54
2019-05-13T22:45:22.605Z,101993.09
2019-05-13T22:47:52.156Z,101991.12
2019-05-13T22:50:21.880Z,101991.02
2019-05-13T22:52:51.250Z,101990.80
2019-05-13T22:55:21.880Z,101991.53
2019-05-13T22:57:51.184Z,101986.41
2019-05-13T23:00:22.330Z,101988.60
2019-05-13T23:02:52.485Z,101988.30
2019-05-13T23:05:21.924Z,101991.83
2019-05-13T23:07:51.544Z,101988.38
2019-05-13T23:10:22.517Z,101991.72
2019-05-13T23:12:52.189Z,101999.00
2019-05-13T23:15:21.439Z,101994.02
2019-05-13T23:17:52.026Z,101993.06
2019-05-13T23:20:21.400Z,101994.92
2019-05-13T23:22:51.950Z,101993.48
2019-05-13T23:25:21.574Z,101991.18
2019-05-13T23:27:51.343Z,101990.66
2019-05-13T23:30:20.730Z,101984.69
2019-05-13T23:32:51.814Z,101981.64
2019-05-13T23:35:21.735Z,101975.47
2019-05-13T23:37:51.130Z,101972.73
2019-05-13T23:40:20.677Z,101967.00
2019-05-13T23:42:51.760Z,101969.50
2019-05-13T23:45:21.829Z,101969.97
2019-05-13T23:47:51.153Z,101964.61
2019-05-13T23:50:21.545Z,101958.11
2019-05-13T23:52:51.318Z,101951.83
2019-05-13T23:55:22.604Z,101948.81
2019-05-13T23:57:52.471Z,101947.22
